createdAt,value
2023-08-12T00:00:11.932Z,95126.00
2023-08-12T00:01:11.965Z,95124.00
2023-08-12T00:02:11.964Z,95122.00
2023-08-12T00:03:12.057Z,95124.00
2023-08-12T00:04:12.004Z,95124.00
2023-08-12T00:05:12.137Z,95124.00
2023-08-12T00:06:12.043Z,95124.00
2023-08-12T00:07:12.276Z,95122.00
2023-08-12T00:08:12.084Z,95124.00
2023-08-12T00:09:12.138Z,95118.00
2023-08-12T00:10:12.152Z,95120.00
2023-08-12T00:11:12.163Z,95120.00
2023-08-12T00:12:12.198Z,95118.00
2023-08-12T00:13:12.192Z,95118.00
2023-08-12T00:14:12.216Z,95118.00
2023-08-12T00:15:12.237Z,95116.00
2023-08-12T00:16:12.318Z,95116.00
2023-08-12T00:17:12.417Z,95112.00
2023-08-12T00:18:12.285Z,95112.00
2023-08-12T00:19:13.174Z,95114.00
2023-08-12T00:20:12.712Z,95112.00
2023-08-12T00:21:12.378Z,95110.00
2023-08-12T00:22:12.409Z,95112.00
2023-08-12T00:23:12.425Z,95110.00
2023-08-12T00:24:12.443Z,95112.00
2023-08-12T00:25:12.467Z,95108.00
2023-08-12T00:26:12.496Z,95106.00
2023-08-12T00:27:12.680Z,95106.00
2023-08-12T00:28:12.566Z,95106.00
2023-08-12T00:29:12.591Z,95110.00
2023-08-12T00:30:12.572Z,95104.00
2023-08-12T00:31:12.664Z,95106.00
2023-08-12T00:32:12.665Z,95104.00
2023-08-12T00:33:12.712Z,95106.00
2023-08-12T00:34:12.707Z,95104.00
2023-08-12T00:35:12.739Z,95106.00
2023-08-12T00:36:12.750Z,95104.00
2023-08-12T00:37:13.015Z,95102.00
2023-08-12T00:38:12.789Z,95102.00
2023-08-12T00:39:12.809Z,95102.00
2023-08-12T00:40:12.824Z,95104.00
2023-08-12T00:41:12.875Z,95102.00
2023-08-12T00:42:12.918Z,95100.00
2023-08-12T00:43:12.981Z,95102.00
2023-08-12T00:44:12.951Z,95100.00
2023-08-12T00:45:12.972Z,95100.00
2023-08-12T00:46:13.043Z,95100.00
2023-08-12T00:47:13.392Z,95100.00
2023-08-12T00:48:14.634Z,95100.00
2023-08-12T00:49:13.044Z,95100.00
2023-08-12T00:50:13.099Z,95100.00
2023-08-12T00:51:13.106Z,95102.00
2023-08-12T00:52:13.145Z,95098.00
2023-08-12T00:53:13.179Z,95102.00
2023-08-12T00:54:13.210Z,95100.00
2023-08-12T00:55:13.225Z,95100.00
2023-08-12T00:56:13.241Z,95098.00
2023-08-12T00:57:13.710Z,95098.00
2023-08-12T00:58:13.311Z,95098.00
2023-08-12T00:59:13.349Z,95100.00
2023-08-12T01:00:13.390Z,95102.00
2023-08-12T01:01:13.478Z,95100.00
2023-08-12T01:02:13.479Z,95100.00
2023-08-12T01:03:13.585Z,95100.00
2023-08-12T01:04:13.567Z,95100.00
2023-08-12T01:05:13.509Z,95100.00
2023-08-12T01:06:13.536Z,95098.00
2023-08-12T01:07:13.891Z,95098.00
2023-08-12T01:08:13.614Z,95094.00
2023-08-12T01:09:13.606Z,95096.00
2023-08-12T01:10:13.654Z,95094.00
2023-08-12T01:11:13.683Z,95094.00
2023-08-12T01:12:13.707Z,95096.00
2023-08-12T01:13:14.240Z,95096.00
2023-08-12T01:14:13.749Z,95096.00
2023-08-12T01:15:13.761Z,95096.00
2023-08-12T01:16:13.899Z,95098.00
2023-08-12T01:17:13.929Z,95096.00
2023-08-12T01:18:13.928Z,95096.00
2023-08-12T01:19:13.976Z,95098.00
2023-08-12T01:20:14.029Z,95098.00
2023-08-12T01:21:13.956Z,95094.00
2023-08-12T01:22:14.014Z,95096.00
2023-08-12T01:23:14.046Z,95096.00
2023-08-12T01:24:14.060Z,95094.00
2023-08-12T01:25:14.088Z,95096.00
2023-08-12T01:26:14.136Z,95092.00
2023-08-12T01:27:14.471Z,95094.00
2023-08-12T01:28:14.215Z,95092.00
2023-08-12T01:29:14.229Z,95090.00
2023-08-12T01:30:14.261Z,95090.00
2023-08-12T01:31:14.334Z,95088.00
2023-08-12T01:32:14.334Z,95092.00
2023-08-12T01:33:14.371Z,95092.00
2023-08-12T01:34:14.420Z,95088.00
2023-08-12T01:35:14.443Z,95090.00
2023-08-12T01:36:14.541Z,95090.00
2023-08-12T01:37:14.551Z,95090.00
2023-08-12T01:38:14.556Z,95088.00
2023-08-12T01:39:14.570Z,95086.00
2023-08-12T01:40:14.611Z,95086.00
2023-08-12T01:41:14.656Z,95081.00
2023-08-12T01:42:14.697Z,95077.00
2023-08-12T01:43:14.713Z,95079.00
2023-08-12T01:44:14.774Z,95075.00
2023-08-12T01:45:14.880Z,95077.00
2023-08-12T01:46:14.858Z,95077.00
2023-08-12T01:47:14.935Z,95077.00
2023-08-12T01:48:14.927Z,95079.00
2023-08-12T01:49:14.933Z,95079.00
2023-08-12T01:50:14.976Z,95079.00
2023-08-12T01:51:14.998Z,95079.00
2023-08-12T01:52:15.048Z,95077.00
2023-08-12T01:53:15.115Z,95079.00
2023-08-12T01:54:15.093Z,95077.00
2023-08-12T01:55:15.130Z,95079.00
2023-08-12T01:56:15.207Z,95077.00
2023-08-12T01:57:15.459Z,95075.00
2023-08-12T01:58:15.267Z,95077.00
2023-08-12T01:59:15.300Z,95077.00
2023-08-12T02:00:15.375Z,95077.00
2023-08-12T02:01:15.414Z,95077.00
2023-08-12T02:02:15.395Z,95077.00
2023-08-12T02:03:15.503Z,95079.00
2023-08-12T02:04:15.493Z,95079.00
2023-08-12T02:05:15.520Z,95073.00
2023-08-12T02:06:15.584Z,95073.00
2023-08-12T02:07:15.595Z,95075.00
2023-08-12T02:08:15.687Z,95075.00
2023-08-12T02:09:15.693Z,95073.00
2023-08-12T02:10:15.753Z,95073.00
2023-08-12T02:11:15.772Z,95071.00
2023-08-12T02:12:15.801Z,95071.00
2023-08-12T02:13:15.880Z,95069.00
2023-08-12T02:14:15.899Z,95063.00
2023-08-12T02:15:15.930Z,95065.00
2023-08-12T02:16:16.052Z,95063.00
2023-08-12T02:17:16.022Z,95065.00
2023-08-12T02:18:16.138Z,95069.00
2023-08-12T02:19:16.106Z,95063.00
2023-08-12T02:20:16.186Z,95065.00
2023-08-12T02:21:16.186Z,95063.00
2023-08-12T02:22:16.263Z,95063.00
2023-08-12T02:23:16.295Z,95063.00
2023-08-12T02:24:16.352Z,95065.00
2023-08-12T02:25:16.362Z,95065.00
2023-08-12T02:26:16.479Z,95063.00
2023-08-12T02:27:16.451Z,95063.00
2023-08-12T02:28:16.532Z,95065.00
2023-08-12T02:29:16.551Z,95061.00
2023-08-12T02:30:16.593Z,95063.00
2023-08-12T02:31:16.717Z,95059.00
2023-08-12T02:32:16.700Z,95061.00
2023-08-12T02:33:16.792Z,95057.00
2023-08-12T02:34:16.842Z,95059.00
2023-08-12T02:35:16.851Z,95059.00
2023-08-12T02:36:16.905Z,95059.00
2023-08-12T02:37:16.970Z,95059.00
2023-08-12T02:38:17.025Z,95061.00
2023-08-12T02:39:17.031Z,95057.00
2023-08-12T02:40:17.083Z,95057.00
2023-08-12T02:41:17.148Z,95057.00
2023-08-12T02:42:17.183Z,95055.00
2023-08-12T02:43:17.225Z,95055.00
2023-08-12T02:44:17.274Z,95053.00
2023-08-12T02:45:17.309Z,95053.00
2023-08-12T02:46:17.400Z,95051.00
2023-08-12T02:47:17.380Z,95053.00
2023-08-12T02:48:17.443Z,95053.00
2023-08-12T02:49:17.484Z,95053.00
2023-08-12T02:50:17.556Z,95055.00
2023-08-12T02:51:17.623Z,95053.00
2023-08-12T02:52:17.654Z,95057.00
2023-08-12T02:53:17.665Z,95055.00
2023-08-12T02:54:17.731Z,95055.00
2023-08-12T02:55:17.795Z,95057.00
2023-08-12T02:56:17.838Z,95057.00
2023-08-12T02:57:17.883Z,95059.00
2023-08-12T02:58:17.942Z,95057.00
2023-08-12T02:59:17.975Z,95057.00
2023-08-12T03:00:18.003Z,95061.00
2023-08-12T03:01:18.076Z,95061.00
2023-08-12T03:02:18.137Z,95059.00
2023-08-12T03:03:18.237Z,95059.00
2023-08-12T03:04:18.228Z,95059.00
2023-08-12T03:05:18.289Z,95059.00
2023-08-12T03:06:18.297Z,95059.00
2023-08-12T03:07:18.337Z,95059.00
2023-08-12T03:08:18.417Z,95059.00
2023-08-12T03:09:18.458Z,95059.00
2023-08-12T03:10:18.511Z,95059.00
2023-08-12T03:11:18.545Z,95059.00
2023-08-12T03:12:18.640Z,95057.00
2023-08-12T03:13:18.667Z,95055.00
2023-08-12T03:14:18.711Z,95055.00
2023-08-12T03:15:18.757Z,95055.00
2023-08-12T03:16:18.843Z,95053.00
2023-08-12T03:17:18.873Z,95051.00
2023-08-12T03:18:18.920Z,95051.00
2023-08-12T03:19:18.965Z,95049.00
2023-08-12T03:20:19.027Z,95049.00
2023-08-12T03:21:19.039Z,95049.00
2023-08-12T03:22:19.136Z,95049.00
2023-08-12T03:23:19.179Z,95049.00
2023-08-12T03:24:19.233Z,95047.00
2023-08-12T03:25:19.288Z,95049.00
2023-08-12T03:26:19.332Z,95047.00
2023-08-12T03:27:19.375Z,95051.00
2023-08-12T03:28:19.397Z,95053.00
2023-08-12T03:29:19.489Z,95053.00
2023-08-12T03:30:19.532Z,95053.00
2023-08-12T03:31:19.604Z,95049.00
2023-08-12T03:32:19.631Z,95049.00
2023-08-12T03:33:19.687Z,95053.00
2023-08-12T03:34:19.762Z,95049.00
2023-08-12T03:35:20.359Z,95049.00
2023-08-12T03:36:19.855Z,95051.00
2023-08-12T03:37:19.912Z,95049.00
2023-08-12T03:38:19.951Z,95051.00
2023-08-12T03:39:20.056Z,95051.00
2023-08-12T03:40:20.081Z,95051.00
2023-08-12T03:41:20.142Z,95053.00
2023-08-12T03:42:20.179Z,95053.00
2023-08-12T03:43:20.241Z,95051.00
2023-08-12T03:44:20.310Z,95047.00
2023-08-12T03:45:20.383Z,95047.00
2023-08-12T03:46:20.433Z,95045.00
2023-08-12T03:47:20.460Z,95045.00
2023-08-12T03:48:20.538Z,95045.00
2023-08-12T03:49:22.471Z,95043.00
2023-08-12T03:50:20.678Z,95047.00
2023-08-12T03:51:20.688Z,95045.00
2023-08-12T03:52:20.757Z,95047.00
2023-08-12T03:53:20.775Z,95045.00
2023-08-12T03:54:20.836Z,95047.00
2023-08-12T03:55:20.916Z,95047.00
2023-08-12T03:56:20.996Z,95047.00
2023-08-12T03:57:21.025Z,95047.00
2023-08-12T03:58:21.126Z,95047.00
2023-08-12T03:59:21.152Z,95047.00
2023-08-12T04:00:21.226Z,95047.00
2023-08-12T04:01:21.290Z,95045.00
2023-08-12T04:02:21.325Z,95047.00
2023-08-12T04:03:21.446Z,95045.00
2023-08-12T04:04:21.442Z,95043.00
2023-08-12T04:05:21.521Z,95045.00
2023-08-12T04:06:21.538Z,95045.00
2023-08-12T04:07:21.630Z,95043.00
2023-08-12T04:08:21.652Z,95041.00
2023-08-12T04:09:21.750Z,95045.00
2023-08-12T04:10:21.837Z,95043.00
2023-08-12T04:11:21.841Z,95047.00
2023-08-12T04:12:21.897Z,95041.00
2023-08-12T04:13:21.975Z,95043.00
2023-08-12T04:14:22.014Z,95041.00
2023-08-12T04:15:22.111Z,95043.00
2023-08-12T04:16:22.171Z,95045.00
2023-08-12T04:17:22.196Z,95045.00
2023-08-12T04:18:22.211Z,95043.00
2023-08-12T04:19:22.292Z,95043.00
2023-08-12T04:20:22.326Z,95043.00
2023-08-12T04:21:22.394Z,95045.00
2023-08-12T04:22:22.449Z,95043.00
2023-08-12T04:23:22.540Z,95039.00
2023-08-12T04:24:22.590Z,95041.00
2023-08-12T04:25:22.690Z,95039.00
2023-08-12T04:26:22.721Z,95041.00
2023-08-12T04:27:22.747Z,95041.00
2023-08-12T04:28:22.830Z,95043.00
2023-08-12T04:29:22.872Z,95045.00
2023-08-12T04:30:22.978Z,95045.00
2023-08-12T04:31:23.091Z,95047.00
2023-08-12T04:32:23.070Z,95049.00
2023-08-12T04:33:23.122Z,95051.00
2023-08-12T04:34:23.179Z,95053.00
2023-08-12T04:35:23.259Z,95053.00
2023-08-12T04:36:23.302Z,95055.00
2023-08-12T04:37:23.337Z,95055.00
2023-08-12T04:38:23.409Z,95053.00
2023-08-12T04:39:23.477Z,95051.00
2023-08-12T04:40:23.548Z,95051.00
2023-08-12T04:41:23.573Z,95049.00
2023-08-12T04:42:23.646Z,95051.00
2023-08-12T04:43:23.709Z,95051.00
2023-08-12T04:44:23.777Z,95051.00
2023-08-12T04:45:23.893Z,95051.00
2023-08-12T04:46:23.925Z,95051.00
2023-08-12T04:47:23.938Z,95051.00
2023-08-12T04:48:24.011Z,95051.00
2023-08-12T04:49:24.073Z,95045.00
2023-08-12T04:50:24.119Z,95045.00
2023-08-12T04:51:24.169Z,95045.00
2023-08-12T04:52:24.236Z,95045.00
2023-08-12T04:53:24.285Z,95043.00
2023-08-12T04:54:24.319Z,95043.00
2023-08-12T04:55:24.403Z,95045.00
2023-08-12T04:56:24.461Z,95043.00
2023-08-12T04:57:24.512Z,95045.00
2023-08-12T04:58:24.591Z,95045.00
2023-08-12T04:59:24.626Z,95045.00
2023-08-12T05:00:24.684Z,95047.00
2023-08-12T05:01:24.773Z,95049.00
2023-08-12T05:02:25.233Z,95051.00
2023-08-12T05:03:24.961Z,95049.00
2023-08-12T05:04:24.898Z,95049.00
2023-08-12T05:05:25.003Z,95049.00
2023-08-12T05:06:25.013Z,95055.00
2023-08-12T05:07:25.062Z,95051.00
2023-08-12T05:08:25.121Z,95055.00
2023-08-12T05:09:25.173Z,95053.00
2023-08-12T05:10:25.226Z,95055.00
2023-08-12T05:11:25.260Z,95051.00
2023-08-12T05:12:25.257Z,95053.00
2023-08-12T05:13:25.297Z,95053.00
2023-08-12T05:14:25.314Z,95055.00
2023-08-12T05:15:26.305Z,95053.00
2023-08-12T05:16:25.415Z,95055.00
2023-08-12T05:17:25.388Z,95053.00
2023-08-12T05:18:25.395Z,95055.00
2023-08-12T05:19:25.407Z,95055.00
2023-08-12T05:20:25.421Z,95053.00
2023-08-12T05:21:25.422Z,95055.00
2023-08-12T05:22:25.439Z,95053.00
2023-08-12T05:23:25.437Z,95049.00
2023-08-12T05:24:25.457Z,95049.00
2023-08-12T05:25:25.447Z,95051.00
2023-08-12T05:26:25.462Z,95049.00
2023-08-12T05:27:25.478Z,95051.00
2023-08-12T05:28:25.444Z,95053.00
2023-08-12T05:29:25.445Z,95055.00
2023-08-12T05:30:25.438Z,95049.00
2023-08-12T05:31:25.493Z,95047.00
2023-08-12T05:32:25.453Z,95053.00
2023-08-12T05:33:25.481Z,95051.00
2023-08-12T05:34:25.455Z,95051.00
2023-08-12T05:35:25.459Z,95049.00
2023-08-12T05:36:25.450Z,95051.00
2023-08-12T05:37:25.474Z,95053.00
2023-08-12T05:38:25.456Z,95053.00
2023-08-12T05:39:25.451Z,95051.00
2023-08-12T05:40:25.451Z,95051.00
2023-08-12T05:41:25.452Z,95051.00
2023-08-12T05:42:25.464Z,95049.00
2023-08-12T05:43:25.457Z,95047.00
2023-08-12T05:44:25.476Z,95047.00
2023-08-12T05:45:25.515Z,95045.00
2023-08-12T05:46:25.564Z,95047.00
2023-08-12T05:47:25.540Z,95047.00
2023-08-12T05:48:25.588Z,95047.00
2023-08-12T05:49:25.583Z,95047.00
2023-08-12T05:50:25.641Z,95045.00
2023-08-12T05:51:27.898Z,95045.00
2023-08-12T05:52:25.780Z,95045.00
2023-08-12T05:53:25.626Z,95045.00
2023-08-12T05:54:25.649Z,95045.00
2023-08-12T05:55:25.636Z,95047.00
2023-08-12T05:56:25.622Z,95045.00
2023-08-12T05:57:28.208Z,95047.00
2023-08-12T05:58:25.635Z,95049.00
2023-08-12T05:59:25.590Z,95049.00
2023-08-12T06:00:25.584Z,95049.00
2023-08-12T06:01:25.713Z,95049.00
2023-08-12T06:02:25.616Z,95049.00
2023-08-12T06:03:25.614Z,95049.00
2023-08-12T06:04:25.567Z,95045.00
2023-08-12T06:05:25.558Z,95047.00
2023-08-12T06:06:25.580Z,95045.00
2023-08-12T06:07:25.534Z,95041.00
2023-08-12T06:08:25.546Z,95041.00
2023-08-12T06:09:25.523Z,95047.00
2023-08-12T06:10:25.511Z,95041.00
2023-08-12T06:11:25.509Z,95041.00
2023-08-12T06:12:25.555Z,95041.00
2023-08-12T06:13:25.519Z,95043.00
2023-08-12T06:14:25.496Z,95043.00
2023-08-12T06:15:25.501Z,95041.00
2023-08-12T06:16:25.584Z,95043.00
2023-08-12T06:17:25.478Z,95039.00
2023-08-12T06:18:25.496Z,95039.00
2023-08-12T06:19:25.475Z,95037.00
2023-08-12T06:20:25.447Z,95037.00
2023-08-12T06:21:25.450Z,95037.00
2023-08-12T06:22:25.447Z,95035.00
2023-08-12T06:23:27.846Z,95035.00
2023-08-12T06:24:25.569Z,95034.00
2023-08-12T06:25:25.639Z,95034.00
2023-08-12T06:26:25.656Z,95032.00
2023-08-12T06:27:25.698Z,95034.00
2023-08-12T06:28:25.745Z,95030.00
2023-08-12T06:29:25.751Z,95028.00
2023-08-12T06:30:25.789Z,95028.00
2023-08-12T06:31:25.867Z,95030.00
2023-08-12T06:32:25.899Z,95022.00
2023-08-12T06:33:25.885Z,95028.00
2023-08-12T06:34:25.946Z,95022.00
2023-08-12T06:35:25.974Z,95022.00
2023-08-12T06:36:26.016Z,95020.00
2023-08-12T06:37:26.017Z,95016.00
2023-08-12T06:38:26.088Z,95018.00
2023-08-12T06:39:26.063Z,95014.00
2023-08-12T06:40:26.138Z,95012.00
2023-08-12T06:41:26.137Z,95012.00
2023-08-12T06:42:26.166Z,95010.00
2023-08-12T06:43:29.155Z,95008.00
2023-08-12T06:44:26.178Z,95008.00
2023-08-12T06:45:26.169Z,95008.00
2023-08-12T06:46:26.186Z,95008.00
2023-08-12T06:47:26.159Z,95006.00
2023-08-12T06:48:26.145Z,95004.00
2023-08-12T06:49:26.129Z,95006.00
2023-08-12T06:50:26.142Z,95004.00
2023-08-12T06:51:26.130Z,95002.00
2023-08-12T06:52:26.158Z,95000.00
2023-08-12T06:53:26.112Z,94996.00
2023-08-12T06:54:26.091Z,94996.00
2023-08-12T06:55:26.124Z,94996.00
2023-08-12T06:56:26.095Z,94994.00
2023-08-12T06:57:26.096Z,94996.00
2023-08-12T06:58:26.109Z,94994.00
2023-08-12T06:59:26.078Z,94992.00
2023-08-12T07:00:26.072Z,94994.00
2023-08-12T07:01:26.115Z,94996.00
2023-08-12T07:02:26.084Z,94994.00
2023-08-12T07:03:26.059Z,94992.00
2023-08-12T07:04:26.045Z,94992.00
2023-08-12T07:05:26.041Z,94990.00
2023-08-12T07:06:26.054Z,94987.00
2023-08-12T07:07:26.024Z,94985.00
2023-08-12T07:08:26.040Z,94987.00
2023-08-12T07:09:26.011Z,94985.00
2023-08-12T07:10:28.062Z,94985.00
2023-08-12T07:11:25.999Z,94981.00
2023-08-12T07:12:26.021Z,94983.00
2023-08-12T07:13:25.982Z,94985.00
2023-08-12T07:14:25.966Z,94981.00
2023-08-12T07:15:25.990Z,94981.00
2023-08-12T07:16:25.964Z,94983.00
2023-08-12T07:17:25.961Z,94983.00
2023-08-12T07:18:25.977Z,94983.00
2023-08-12T07:19:25.947Z,94983.00
2023-08-12T07:20:25.949Z,94985.00
2023-08-12T07:21:25.981Z,94983.00
2023-08-12T07:22:25.945Z,94985.00
2023-08-12T07:23:25.915Z,94981.00
2023-08-12T07:24:25.886Z,94983.00
2023-08-12T07:25:25.911Z,94981.00
2023-08-12T07:26:25.891Z,94983.00
2023-08-12T07:27:25.895Z,94983.00
2023-08-12T07:28:25.897Z,94985.00
2023-08-12T07:29:25.882Z,94983.00
2023-08-12T07:30:25.904Z,94979.00
2023-08-12T07:31:25.922Z,94981.00
2023-08-12T07:32:25.845Z,94981.00
2023-08-12T07:33:25.893Z,94981.00
2023-08-12T07:34:26.836Z,94981.00
2023-08-12T07:35:25.841Z,94981.00
2023-08-12T07:36:25.817Z,94981.00
2023-08-12T07:37:25.822Z,94981.00
2023-08-12T07:38:25.833Z,94979.00
2023-08-12T07:39:25.805Z,94981.00
2023-08-12T07:40:25.813Z,94975.00
2023-08-12T07:41:25.796Z,94975.00
2023-08-12T07:42:25.765Z,94973.00
2023-08-12T07:43:25.781Z,94971.00
2023-08-12T07:44:25.747Z,94971.00
2023-08-12T07:45:25.786Z,94969.00
2023-08-12T07:46:25.782Z,94969.00
2023-08-12T07:47:25.744Z,94971.00
2023-08-12T07:48:25.730Z,94967.00
2023-08-12T07:49:25.728Z,94967.00
2023-08-12T07:50:25.723Z,94961.00
2023-08-12T07:51:25.733Z,94963.00
2023-08-12T07:52:25.698Z,94961.00
2023-08-12T07:53:25.710Z,94961.00
2023-08-12T07:54:25.682Z,94961.00
2023-08-12T07:56:25.683Z,94963.00
2023-08-12T07:57:25.678Z,94961.00
2023-08-12T07:58:25.655Z,94959.00
2023-08-12T07:59:25.639Z,94959.00
2023-08-12T08:00:25.638Z,94961.00
2023-08-12T08:01:25.643Z,94957.00
2023-08-12T08:02:25.647Z,94959.00
2023-08-12T08:03:25.644Z,94959.00
2023-08-12T08:04:25.616Z,94959.00
2023-08-12T08:05:25.619Z,94957.00
2023-08-12T08:06:25.612Z,94955.00
2023-08-12T08:07:25.577Z,94953.00
2023-08-12T08:08:25.632Z,94955.00
2023-08-12T08:09:25.589Z,94959.00
2023-08-12T08:10:25.578Z,94953.00
2023-08-12T08:11:25.549Z,94953.00
2023-08-12T08:12:25.575Z,94949.00
2023-08-12T08:13:25.568Z,94949.00
2023-08-12T08:14:25.558Z,94949.00
2023-08-12T08:15:25.524Z,94949.00
2023-08-12T08:16:26.099Z,94951.00
2023-08-12T08:17:25.615Z,94947.00
2023-08-12T08:18:25.537Z,94947.00
2023-08-12T08:20:25.506Z,94947.00
2023-08-12T08:21:25.482Z,94943.00
2023-08-12T08:22:25.481Z,94943.00
2023-08-12T08:23:25.476Z,94943.00
2023-08-12T08:24:25.471Z,94943.00
2023-08-12T08:25:25.463Z,94943.00
2023-08-12T08:26:25.450Z,94943.00
2023-08-12T08:27:25.423Z,94943.00
2023-08-12T08:28:25.441Z,94941.00
2023-08-12T08:29:25.421Z,94941.00
2023-08-12T08:30:25.421Z,94943.00
2023-08-12T08:31:25.411Z,94940.00
2023-08-12T08:32:25.402Z,94941.00
2023-08-12T08:33:25.399Z,94941.00
2023-08-12T08:34:25.408Z,94941.00
2023-08-12T08:35:25.404Z,94940.00
2023-08-12T08:36:25.387Z,94941.00
2023-08-12T08:37:25.361Z,94940.00
2023-08-12T08:38:25.340Z,94938.00
2023-08-12T08:39:25.357Z,94940.00
2023-08-12T08:40:25.372Z,94940.00
2023-08-12T08:41:25.348Z,94938.00
2023-08-12T08:42:25.340Z,94938.00
2023-08-12T08:43:25.334Z,94940.00
2023-08-12T08:44:25.338Z,94943.00
2023-08-12T08:45:25.314Z,94941.00
2023-08-12T08:46:25.336Z,94938.00
2023-08-12T08:47:25.373Z,94934.00
2023-08-12T08:48:25.396Z,94932.00
2023-08-12T08:49:25.465Z,94932.00
2023-08-12T08:50:25.559Z,94930.00
2023-08-12T08:51:25.579Z,94934.00
2023-08-12T08:52:25.642Z,94938.00
2023-08-12T08:53:25.708Z,94938.00
2023-08-12T08:54:25.792Z,94941.00
2023-08-12T08:55:25.919Z,94940.00
2023-08-12T08:56:25.876Z,94941.00
2023-08-12T08:57:40.789Z,94943.00
2023-08-12T08:58:28.597Z,94940.00
2023-08-12T08:59:25.930Z,94938.00
2023-08-12T09:00:25.883Z,94934.00
2023-08-12T09:01:25.943Z,94932.00
2023-08-12T09:02:25.991Z,94934.00
2023-08-12T09:03:25.894Z,94930.00
2023-08-12T09:04:25.884Z,94930.00
2023-08-12T09:05:26.037Z,94928.00
2023-08-12T09:06:25.861Z,94930.00
2023-08-12T09:07:25.865Z,94930.00
2023-08-12T09:08:25.840Z,94934.00
2023-08-12T09:09:25.862Z,94926.00
2023-08-12T09:10:28.476Z,94926.00
2023-08-12T09:11:25.844Z,94922.00
2023-08-12T09:12:25.835Z,94924.00
2023-08-12T09:13:25.812Z,94920.00
2023-08-12T09:14:25.821Z,94926.00
2023-08-12T09:15:25.933Z,94928.00
2023-08-12T09:16:25.822Z,94922.00
2023-08-12T09:17:25.833Z,94922.00
2023-08-12T09:18:25.801Z,94922.00
2023-08-12T09:19:25.785Z,94916.00
2023-08-12T09:20:25.811Z,94914.00
2023-08-12T09:21:25.778Z,94916.00
2023-08-12T09:22:25.781Z,94918.00
2023-08-12T09:23:25.738Z,94918.00
2023-08-12T09:24:25.746Z,94916.00
2023-08-12T09:25:25.770Z,94914.00
2023-08-12T09:26:25.739Z,94916.00
2023-08-12T09:27:25.742Z,94912.00
2023-08-12T09:28:25.763Z,94912.00
2023-08-12T09:29:25.717Z,94910.00
2023-08-12T09:30:25.716Z,94906.00
2023-08-12T09:31:25.837Z,94906.00
2023-08-12T09:32:25.806Z,94906.00
2023-08-12T09:33:25.667Z,94906.00
2023-08-12T09:34:25.673Z,94904.00
2023-08-12T09:35:25.689Z,94906.00
2023-08-12T09:36:25.666Z,94902.00
2023-08-12T09:37:25.653Z,94895.00
2023-08-12T09:38:25.653Z,94893.00
2023-08-12T09:39:25.623Z,94893.00
2023-08-12T09:40:25.640Z,94891.00
2023-08-12T09:41:25.655Z,94889.00
2023-08-12T09:42:25.622Z,94893.00
2023-08-12T09:43:25.644Z,94891.00
2023-08-12T09:44:25.603Z,94887.00
2023-08-12T09:45:25.617Z,94887.00
2023-08-12T09:46:25.594Z,94883.00
2023-08-12T09:47:25.677Z,94883.00
2023-08-12T09:48:25.587Z,94885.00
2023-08-12T09:49:25.546Z,94879.00
2023-08-12T09:50:25.622Z,94881.00
2023-08-12T09:51:25.579Z,94881.00
2023-08-12T09:52:25.550Z,94881.00
2023-08-12T09:53:25.573Z,94879.00
2023-08-12T09:54:25.533Z,94877.00
2023-08-12T09:55:25.554Z,94879.00
2023-08-12T09:56:25.523Z,94877.00
2023-08-12T09:57:25.508Z,94873.00
2023-08-12T09:58:25.506Z,94873.00
2023-08-12T09:59:25.494Z,94873.00
2023-08-12T10:00:25.496Z,94873.00
2023-08-12T10:01:25.501Z,94871.00
2023-08-12T10:02:25.520Z,94871.00
2023-08-12T10:03:25.485Z,94869.00
2023-08-12T10:04:25.478Z,94869.00
2023-08-12T10:05:25.443Z,94869.00
2023-08-12T10:06:25.455Z,94867.00
2023-08-12T10:07:25.472Z,94867.00
2023-08-12T10:08:25.500Z,94863.00
2023-08-12T10:09:25.523Z,94863.00
2023-08-12T10:10:25.529Z,94861.00
2023-08-12T10:11:25.511Z,94857.00
2023-08-12T10:12:25.525Z,94857.00
2023-08-12T10:13:25.547Z,94857.00
2023-08-12T10:14:25.599Z,94853.00
2023-08-12T10:15:25.571Z,94853.00
2023-08-12T10:16:25.602Z,94855.00
2023-08-12T10:17:41.163Z,94853.00
2023-08-12T10:18:26.617Z,94845.00
2023-08-12T10:19:25.594Z,94845.00
2023-08-12T10:20:25.969Z,94849.00
2023-08-12T10:21:25.585Z,94845.00
2023-08-12T10:22:25.597Z,94841.00
2023-08-12T10:23:25.573Z,94847.00
2023-08-12T10:24:25.553Z,94845.00
2023-08-12T10:25:25.605Z,94845.00
2023-08-12T10:26:25.561Z,94845.00
2023-08-12T10:27:25.540Z,94843.00
2023-08-12T10:28:25.534Z,94841.00
2023-08-12T10:29:25.525Z,94838.00
2023-08-12T10:30:25.496Z,94840.00
2023-08-12T10:31:25.595Z,94836.00
2023-08-12T10:32:25.531Z,94836.00
2023-08-12T10:33:25.501Z,94838.00
2023-08-12T10:34:25.484Z,94832.00
2023-08-12T10:35:25.474Z,94832.00
2023-08-12T10:36:25.507Z,94828.00
2023-08-12T10:37:25.472Z,94826.00
2023-08-12T10:38:25.543Z,94828.00
2023-08-12T10:39:25.561Z,94824.00
2023-08-12T10:40:25.545Z,94822.00
2023-08-12T10:41:25.575Z,94820.00
2023-08-12T10:42:25.545Z,94816.00
2023-08-12T10:43:25.689Z,94816.00
2023-08-12T10:44:25.663Z,94814.00
2023-08-12T10:45:25.667Z,94814.00
2023-08-12T10:46:25.725Z,94812.00
2023-08-12T10:47:25.703Z,94808.00
2023-08-12T10:48:25.758Z,94806.00
2023-08-12T10:49:25.654Z,94804.00
2023-08-12T10:50:25.664Z,94804.00
2023-08-12T10:51:25.675Z,94804.00
2023-08-12T10:52:25.646Z,94798.00
2023-08-12T10:53:25.713Z,94796.00
2023-08-12T10:54:25.753Z,94796.00
2023-08-12T10:55:25.851Z,94794.00
2023-08-12T10:56:25.818Z,94794.00
2023-08-12T10:57:25.799Z,94791.00
2023-08-12T10:58:25.812Z,94789.00
2023-08-12T10:59:25.786Z,94787.00
2023-08-12T11:00:25.819Z,94789.00
2023-08-12T11:01:25.865Z,94787.00
2023-08-12T11:02:25.822Z,94787.00
2023-08-12T11:03:25.830Z,94791.00
2023-08-12T11:04:25.823Z,94787.00
2023-08-12T11:05:25.862Z,94785.00
2023-08-12T11:06:25.955Z,94785.00
2023-08-12T11:07:26.003Z,94791.00
2023-08-12T11:08:26.111Z,94785.00
2023-08-12T11:09:26.188Z,94787.00
2023-08-12T11:10:26.236Z,94785.00
2023-08-12T11:11:26.214Z,94785.00
2023-08-12T11:12:26.226Z,94789.00
2023-08-12T11:13:26.197Z,94787.00
2023-08-12T11:14:26.220Z,94791.00
2023-08-12T11:15:26.208Z,94791.00
2023-08-12T11:16:26.218Z,94783.00
2023-08-12T11:17:26.258Z,94787.00
2023-08-12T11:18:26.206Z,94789.00
2023-08-12T11:19:26.249Z,94791.00
2023-08-12T11:20:26.228Z,94785.00
2023-08-12T11:21:26.212Z,94785.00
2023-08-12T11:22:26.217Z,94783.00
2023-08-12T11:23:26.250Z,94783.00
2023-08-12T11:24:26.248Z,94779.00
2023-08-12T11:25:26.272Z,94779.00
2023-08-12T11:26:26.291Z,94777.00
2023-08-12T11:27:26.309Z,94777.00
2023-08-12T11:28:26.287Z,94775.00
2023-08-12T11:29:26.341Z,94775.00
2023-08-12T11:30:26.334Z,94773.00
2023-08-12T11:31:26.359Z,94773.00
2023-08-12T11:32:26.393Z,94771.00
2023-08-12T11:33:26.418Z,94769.00
2023-08-12T11:34:26.398Z,94771.00
2023-08-12T11:35:26.425Z,94769.00
2023-08-12T11:36:26.476Z,94767.00
2023-08-12T11:37:26.433Z,94767.00
2023-08-12T11:38:26.454Z,94763.00
2023-08-12T11:39:26.445Z,94761.00
2023-08-12T11:40:26.442Z,94761.00
2023-08-12T11:41:26.466Z,94755.00
2023-08-12T11:42:26.445Z,94755.00
2023-08-12T11:43:26.473Z,94753.00
2023-08-12T11:44:26.519Z,94751.00
2023-08-12T11:45:26.646Z,94751.00
2023-08-12T11:46:26.742Z,94747.00